Time;durP1;ratioP1;P1;durP2;ratioP2;P2;SDS_P1;SDS_P2;PMS_P1;PMS_P2;Temp;Humidity;BMP_temperature;BMP_pressure;BME280_temperature;BME280_humidity;BME280_pressure;Samples;Min_cycle;Max_cycle;Signal;HPM_P1;HPM_P2
2023/04/21 00:02:26;;;;;;;33.47;30.58;;;;;;;8.40;90.67;101375.00;5110680;28;20050;-59
2023/04/21 00:04:52;;;;;;;35.97;32.97;;;;;;;8.20;92.29;101373.22;5106769;28;20023;-59
2023/04/21 00:07:19;;;;;;;36.22;33.03;;;;;;;8.20;92.70;101361.75;5091626;28;20042;-59
2023/04/21 00:09:44;;;;;;;36.25;33.20;;;;;;;8.26;92.41;101364.13;5091955;28;20048;-59
2023/04/21 00:12:10;;;;;;;36.00;32.80;;;;;;;8.19;92.56;101371.50;5092024;28;20031;-59
2023/04/21 00:14:35;;;;;;;37.67;34.28;;;;;;;8.25;93.80;101374.81;5095302;28;20028;-59
2023/04/21 00:17:00;;;;;;;37.50;34.03;;;;;;;8.15;94.05;101351.38;5091749;28;20028;-59
2023/04/21 00:19:27;;;;;;;36.33;33.13;;;;;;;8.33;93.06;101351.47;5090192;28;20024;-59
2023/04/21 00:21:57;;;;;;;38.78;35.40;;;;;;;8.20;93.90;101354.66;5091110;28;20028;-59
2023/04/21 00:24:24;;;;;;;38.47;35.05;;;;;;;8.21;94.20;101350.25;5092115;28;20035;-59
2023/04/21 00:26:49;;;;;;;38.85;35.45;;;;;;;8.15;93.96;101337.28;5091860;28;20035;-59
2023/04/21 00:29:14;;;;;;;38.05;34.67;;;;;;;8.27;93.84;101341.16;5091890;28;20024;-59
2023/04/21 00:31:40;;;;;;;39.55;36.20;;;;;;;8.16;94.65;101336.34;5092092;28;20047;-60
2023/04/21 00:34:07;;;;;;;37.72;34.22;;;;;;;8.12;93.95;101335.63;5091510;28;20383;-59
2023/04/21 00:36:33;;;;;;;34.45;31.45;;;;;;;8.14;93.99;101340.84;5089707;28;20055;-59
2023/04/21 00:38:58;;;;;;;36.97;33.67;;;;;;;8.05;93.67;101336.81;5090430;28;20092;-59
2023/04/21 00:41:24;;;;;;;36.92;33.63;;;;;;;8.16;93.50;101342.50;5090241;28;20039;-59
2023/04/21 00:44:07;;;;;;;38.45;35.15;;;;;;;8.16;94.20;101336.34;5091745;28;20042;-59
2023/04/21 00:46:33;;;;;;;37.83;34.50;;;;;;;8.12;93.66;101317.09;5091439;28;20032;-59
2023/04/21 00:48:59;;;;;;;38.17;34.72;;;;;;;8.09;95.25;101338.41;5090404;28;20039;-59
2023/04/21 00:51:28;;;;;;;38.13;34.83;;;;;;;8.16;94.34;101342.50;5089247;28;20078;-59
2023/04/21 00:53:54;;;;;;;38.07;34.43;;;;;;;8.27;94.48;101336.72;5090424;28;20113;-59
2023/04/21 00:56:20;;;;;;;38.65;35.25;;;;;;;8.25;94.78;101332.41;5091956;28;20386;-59
2023/04/21 00:58:47;;;;;;;39.40;35.78;;;;;;;8.18;94.74;101326.53;5092006;28;20027;-59
2023/04/21 01:01:13;;;;;;;40.10;36.47;;;;;;;8.20;95.13;101327.31;5091294;28;20028;-59
2023/04/21 01:03:41;;;;;;;39.05;35.38;;;;;;;8.09;94.66;101333.13;5091623;28;20032;-59
2023/04/21 01:06:07;;;;;;;39.15;35.45;;;;;;;8.20;94.75;101338.75;5090775;28;20032;-59
2023/04/21 01:08:33;;;;;;;39.50;35.90;;;;;;;8.18;95.70;101331.84;5089731;28;20054;-59
2023/04/21 01:10:59;;;;;;;41.75;38.05;;;;;;;8.18;95.44;101318.59;5091111;28;20044;-59
2023/04/21 01:13:24;;;;;;;38.28;34.78;;;;;;;8.19;94.97;101313.22;5091374;28;20498;-59
2023/04/21 01:15:49;;;;;;;38.15;34.90;;;;;;;8.25;94.86;101312.06;5092050;28;20024;-59
2023/04/21 01:18:17;;;;;;;38.33;34.72;;;;;;;8.19;94.95;101309.69;5094011;28;20035;-59
2023/04/21 01:20:43;;;;;;;38.28;34.90;;;;;;;8.33;94.51;101309.06;5094819;28;20501;-59
2023/04/21 01:23:11;;;;;;;38.50;35.15;;;;;;;8.15;94.97;101309.00;5105863;28;20502;-59
2023/04/21 01:25:39;;;;;;;39.45;36.05;;;;;;;8.12;96.20;101298.53;5094965;28;20077;-59
2023/04/21 01:28:04;;;;;;;37.67;34.30;;;;;;;8.13;96.42;101302.91;5093710;28;20118;-59
2023/04/21 01:30:32;;;;;;;39.97;36.33;;;;;;;8.01;97.01;101298.16;5094696;28;20463;-59
2023/04/21 01:32:59;;;;;;;41.03;37.42;;;;;;;8.02;97.95;101286.63;5094972;28;20024;-59
2023/04/21 01:35:24;;;;;;;40.85;37.17;;;;;;;8.07;97.03;101292.56;5094733;28;20059;-59
2023/04/21 01:37:50;;;;;;;40.53;36.72;;;;;;;8.06;96.67;101288.22;5092450;28;20432;-59
2023/04/21 01:40:15;;;;;;;39.78;35.97;;;;;;;8.08;96.36;101293.44;5094636;28;20020;-59
2023/04/21 01:42:42;;;;;;;39.08;35.42;;;;;;;7.91;96.96;101287.13;5094648;28;20024;-59
2023/04/21 01:45:13;;;;;;;40.45;36.83;;;;;;;7.88;98.08;101284.63;5093526;28;20508;-59
2023/04/21 01:47:38;;;;;;;39.53;35.75;;;;;;;8.03;97.21;101291.00;5094915;28;20035;-59
2023/04/21 01:50:04;;;;;;;40.63;36.92;;;;;;;8.02;97.42;101278.66;5094426;28;20028;-59
2023/04/21 01:52:30;;;;;;;38.40;34.72;;;;;;;7.93;96.65;101271.16;5094032;28;20066;-59
2023/04/21 01:54:55;;;;;;;39.47;35.72;;;;;;;7.93;96.93;101264.06;5094768;28;20532;-59
2023/04/21 01:57:20;;;;;;;39.50;35.83;;;;;;;7.89;97.42;101261.63;5075959;28;20028;-59
2023/04/21 01:59:47;;;;;;;38.45;34.85;;;;;;;7.87;97.29;101250.25;5094188;28;20024;-59
2023/04/21 02:02:12;;;;;;;36.90;33.35;;;;;;;7.76;97.92;101245.41;5094038;28;20474;-59
2023/04/21 02:04:38;;;;;;;39.10;35.38;;;;;;;7.82;98.07;101242.50;5094558;28;20027;-59
2023/04/21 02:07:03;;;;;;;39.65;35.85;;;;;;;7.84;98.23;101237.16;5093873;28;20024;-59
2023/04/21 02:09:28;;;;;;;38.58;34.95;;;;;;;7.77;97.89;101239.22;5094124;28;20527;-59
2023/04/21 02:11:55;;;;;;;32.08;27.48;;;;;;;7.86;97.96;101249.38;5094095;28;20020;-59
2023/04/21 02:14:24;;;;;;;38.53;34.75;;;;;;;7.91;97.83;101258.00;5093984;28;20031;-59
2023/04/21 02:16:49;;;;;;;39.15;35.35;;;;;;;7.79;97.63;101257.66;5093907;28;20028;-59
2023/04/21 02:19:14;;;;;;;36.95;33.35;;;;;;;7.84;97.41;101243.28;5092761;28;20028;-59
2023/04/21 02:21:40;;;;;;;38.13;34.50;;;;;;;7.83;98.38;101246.88;5093572;28;20376;-59
2023/04/21 02:24:05;;;;;;;38.65;35.10;;;;;;;7.79;98.15;101245.28;5092822;28;20082;-59
2023/04/21 02:26:31;;;;;;;33.83;30.35;;;;;;;7.87;97.56;101229.06;5092937;28;20031;-59
2023/04/21 02:28:56;;;;;;;37.88;34.15;;;;;;;7.84;97.32;101234.50;5091304;28;20049;-59
2023/04/21 02:31:21;;;;;;;37.80;34.20;;;;;;;7.80;97.49;101232.94;5112686;27;20084;-59
2023/04/21 02:33:49;;;;;;;38.72;35.00;;;;;;;7.85;97.53;101238.84;5108151;28;20024;-59
2023/04/21 02:36:15;;;;;;;38.70;34.95;;;;;;;7.80;97.66;101238.22;5112381;28;20031;-59
2023/04/21 02:38:40;;;;;;;39.08;35.40;;;;;;;7.94;97.72;101231.38;5097786;27;20115;-59
2023/04/21 02:41:05;;;;;;;39.33;35.50;;;;;;;7.89;97.82;101227.22;5106148;28;20032;-59
2023/04/21 02:43:31;;;;;;;39.45;35.50;;;;;;;7.96;98.03;101228.63;5109498;28;20032;-59
2023/04/21 02:45:58;;;;;;;34.28;28.88;;;;;;;7.99;97.40;101232.94;5107230;28;20062;-59
2023/04/21 02:48:25;;;;;;;40.75;36.60;;;;;;;7.82;97.90;101231.91;5102761;28;20031;-59
2023/04/21 02:50:52;;;;;;;39.90;36.08;;;;;;;7.90;97.85;101237.72;5111964;27;20466;-59
2023/04/21 02:53:22;;;;;;;38.53;34.83;;;;;;;7.79;97.94;101239.13;5112668;28;20036;-59
2023/04/21 02:55:50;;;;;;;40.33;36.33;;;;;;;7.83;98.13;101220.41;5110544;28;20032;-59
2023/04/21 02:58:18;;;;;;;40.28;36.50;;;;;;;7.88;97.26;101230.75;5110092;28;20039;-59
2023/04/21 03:00:43;;;;;;;41.25;37.13;;;;;;;7.82;97.77;101234.53;5111982;28;20104;-59
2023/04/21 03:03:09;;;;;;;38.58;35.00;;;;;;;7.86;97.78;101206.16;5112394;28;20474;-59
2023/04/21 03:05:34;;;;;;;41.83;37.72;;;;;;;7.91;97.27;101220.91;5111104;28;20032;-59
2023/04/21 03:08:00;;;;;;;41.08;36.95;;;;;;;7.87;97.92;101218.47;5110725;28;20035;-59
2023/04/21 03:10:25;;;;;;;41.67;37.47;;;;;;;7.84;97.50;101219.47;5109763;28;20529;-59
2023/04/21 03:12:50;;;;;;;41.20;36.90;;;;;;;7.76;97.84;101221.59;5109565;28;20479;-59
2023/04/21 03:15:16;;;;;;;42.75;38.50;;;;;;;7.77;98.03;101222.47;5110638;28;20211;-59
2023/04/21 03:17:42;;;;;;;42.95;38.65;;;;;;;7.65;97.82;101221.25;5110809;28;20023;-59
2023/04/21 03:20:09;;;;;;;42.83;38.28;;;;;;;7.82;97.58;101215.16;5109071;28;20063;-59
2023/04/21 03:22:35;;;;;;;41.05;37.08;;;;;;;7.66;97.94;101223.81;5111231;28;20027;-59
2023/04/21 03:25:00;;;;;;;42.80;38.50;;;;;;;7.63;97.82;101225.72;5112015;28;20080;-59
2023/04/21 03:27:26;;;;;;;35.75;30.95;;;;;;;7.78;97.52;101225.03;5108763;28;20023;-59
2023/04/21 03:29:51;;;;;;;44.42;40.00;;;;;;;7.67;97.17;101220.22;5107958;28;20077;-59
2023/04/21 03:32:16;;;;;;;43.38;38.83;;;;;;;7.70;97.51;101222.72;5110527;28;20035;-59
2023/04/21 03:34:44;;;;;;;37.35;32.63;;;;;;;7.78;97.47;101221.53;5100291;28;20103;-59
2023/04/21 03:37:10;;;;;;;46.03;41.40;;;;;;;7.64;98.27;101215.06;5092292;28;20081;-59
2023/04/21 03:39:35;;;;;;;46.30;41.53;;;;;;;7.61;98.62;101217.84;5090807;28;20024;-59
2023/04/21 03:42:00;;;;;;;42.83;35.50;;;;;;;7.62;98.35;101213.44;5090940;28;20035;-59
2023/04/21 03:44:27;;;;;;;48.15;43.13;;;;;;;7.49;98.62;101219.25;5092267;28;20365;-59
2023/04/21 03:46:53;;;;;;;47.47;42.58;;;;;;;7.53;99.08;101220.00;5092251;28;20024;-59
2023/04/21 03:49:19;;;;;;;48.63;43.40;;;;;;;7.63;99.07;101216.00;5091174;28;20027;-59
2023/04/21 03:51:45;;;;;;;49.42;44.42;;;;;;;7.60;98.57;101213.50;5091425;28;20391;-59
2023/04/21 03:54:10;;;;;;;45.55;38.03;;;;;;;7.69;98.50;101214.88;5092369;28;20039;-59
2023/04/21 03:56:38;;;;;;;49.75;44.67;;;;;;;7.63;98.89;101217.78;5090941;28;20160;-59
2023/04/21 03:59:04;;;;;;;51.15;45.75;;;;;;;7.77;99.12;101223.34;5091968;28;20137;-59
2023/04/21 04:01:30;;;;;;;44.95;36.03;;;;;;;7.80;99.10;101214.41;5092058;28;20031;-60
2023/04/21 04:03:55;;;;;;;50.60;45.40;;;;;;;7.79;98.36;101218.81;5090958;28;20475;-59
2023/04/21 04:06:21;;;;;;;50.35;44.85;;;;;;;7.69;99.08;101210.44;5090352;28;20036;-59
2023/04/21 04:08:46;;;;;;;47.25;41.85;;;;;;;7.80;99.20;101220.53;5090600;28;20070;-59
2023/04/21 04:11:12;;;;;;;52.33;46.90;;;;;;;7.76;99.11;101203.06;5090870;28;20062;-59
2023/04/21 04:13:37;;;;;;;52.33;46.78;;;;;;;7.83;98.99;101212.47;5090506;28;20020;-59
2023/04/21 04:16:05;;;;;;;54.10;48.50;;;;;;;7.85;99.05;101215.03;5091974;28;20075;-59
2023/04/21 04:18:33;;;;;;;51.90;46.45;;;;;;;7.90;99.10;101200.63;5091983;28;20019;-59
2023/04/21 04:21:04;;;;;;;53.85;47.50;;;;;;;7.93;98.97;101208.44;5090149;28;20054;-59
2023/04/21 04:23:30;;;;;;;53.95;48.33;;;;;;;7.85;98.78;101204.44;5091794;28;20504;-59
2023/04/21 04:25:56;;;;;;;53.92;48.35;;;;;;;7.77;98.68;101196.84;5090555;28;20107;-59
2023/04/21 04:28:21;;;;;;;53.72;47.83;;;;;;;7.82;99.77;101205.41;5091729;28;20058;-59
2023/04/21 04:30:47;;;;;;;54.13;48.42;;;;;;;7.80;99.18;101193.22;5091678;28;20425;-59
2023/04/21 04:33:15;;;;;;;53.65;47.83;;;;;;;7.83;99.35;101204.50;5091587;28;20073;-59
2023/04/21 04:35:40;;;;;;;51.65;42.72;;;;;;;7.92;98.87;101201.44;5095675;28;20378;-59
2023/04/21 04:38:06;;;;;;;52.50;47.10;;;;;;;7.96;98.74;101204.78;5091378;28;20024;-59
2023/04/21 04:40:32;;;;;;;53.90;48.00;;;;;;;7.92;98.93;101209.38;5091703;28;20033;-59
2023/04/21 04:42:58;;;;;;;56.35;50.35;;;;;;;7.79;98.46;101210.00;5090484;28;20031;-59
2023/04/21 04:45:25;;;;;;;56.20;50.33;;;;;;;7.72;99.95;101212.94;5091688;28;20024;-59
2023/04/21 04:47:51;;;;;;;55.88;49.85;;;;;;;7.85;99.55;101215.91;5091451;28;20051;-59
2023/04/21 04:50:16;;;;;;;56.50;50.47;;;;;;;7.87;99.16;101202.56;5091812;28;20391;-59
2023/04/21 04:52:45;;;;;;;55.78;49.78;;;;;;;7.92;99.55;101216.47;5094956;28;20514;-59
2023/04/21 04:55:11;;;;;;;54.37;45.37;;;;;;;7.88;99.65;101204.28;5095884;28;20024;-59
2023/04/21 04:57:36;;;;;;;58.78;51.63;;;;;;;7.79;99.89;101210.00;5093799;28;20028;-59
2023/04/21 05:00:02;;;;;;;59.65;53.25;;;;;;;7.95;99.74;101213.69;5095540;28;20027;-59
2023/04/21 05:02:27;;;;;;;60.60;54.03;;;;;;;7.87;99.85;101213.16;5094179;28;20435;-59
2023/04/21 05:04:53;;;;;;;61.50;54.50;;;;;;;7.97;99.69;101217.97;5095091;28;20030;-59
2023/04/21 05:07:18;;;;;;;61.38;54.63;;;;;;;7.90;99.66;101223.63;5094556;28;20051;-59
2023/04/21 05:09:46;;;;;;;61.90;55.35;;;;;;;7.88;99.24;101212.22;5097063;28;20047;-59
2023/04/21 05:12:14;;;;;;;61.63;48.30;;;;;;;7.95;99.71;101217.19;5095161;28;20479;-59
2023/04/21 05:14:40;;;;;;;66.03;58.75;;;;;;;7.92;100.00;101213.81;5095461;28;20106;-59
2023/04/21 05:17:05;;;;;;;64.15;56.95;;;;;;;7.87;99.98;101221.13;5095144;28;20554;-59
2023/04/21 05:19:30;;;;;;;68.32;57.38;;;;;;;7.93;100.00;101220.81;5095170;28;20024;-59
2023/04/21 05:22:02;;;;;;;66.47;59.17;;;;;;;7.91;100.00;101231.50;5092993;28;20106;-59
2023/04/21 05:24:27;;;;;;;62.97;46.20;;;;;;;7.92;100.00;101233.22;5093959;28;20074;-59
2023/04/21 05:26:53;;;;;;;66.50;58.97;;;;;;;7.91;100.00;101235.91;5094652;28;20020;-59
2023/04/21 05:29:18;;;;;;;69.53;60.28;;;;;;;7.95;100.00;101234.88;5095032;28;20027;-59
2023/04/21 05:31:44;;;;;;;69.05;61.55;;;;;;;7.85;100.00;101239.72;5076681;28;20016;-59
2023/04/21 05:34:09;;;;;;;65.20;48.40;;;;;;;7.96;100.00;101242.72;5095016;28;20398;-59
2023/04/21 05:36:35;;;;;;;67.63;60.17;;;;;;;7.91;100.00;101247.41;5076113;28;20042;-59
2023/04/21 05:39:00;;;;;;;68.37;59.93;;;;;;;7.85;100.00;101246.78;5094664;28;20035;-59
2023/04/21 05:41:25;;;;;;;67.55;60.17;;;;;;;7.92;100.00;101246.47;5093212;28;20372;-59
2023/04/21 05:43:51;;;;;;;64.97;57.83;;;;;;;8.04;100.00;101245.03;5094685;28;20042;-59
2023/04/21 05:46:16;;;;;;;70.47;62.00;;;;;;;8.00;100.00;101240.81;5093210;28;20401;-59
2023/04/21 05:48:42;;;;;;;64.95;58.13;;;;;;;8.03;100.00;101245.97;5094642;28;20035;-59
2023/04/21 05:51:09;;;;;;;65.63;57.63;;;;;;;7.97;100.00;101251.53;5093009;28;20453;-59
2023/04/21 05:53:35;;;;;;;69.43;60.70;;;;;;;7.93;100.00;101240.22;5094528;28;20036;-59
2023/04/21 05:56:00;;;;;;;66.85;59.50;;;;;;;8.09;100.00;101247.47;5093976;28;20023;-59
2023/04/21 05:58:26;;;;;;;68.80;59.53;;;;;;;7.96;100.00;101233.94;5098743;28;20503;-59
2023/04/21 06:00:51;;;;;;;69.88;60.55;;;;;;;8.11;100.00;101250.91;5102944;28;20027;-59
2023/04/21 06:03:16;;;;;;;69.53;60.47;;;;;;;8.14;100.00;101246.31;5103109;28;20051;-59
2023/04/21 06:05:42;;;;;;;68.03;60.60;;;;;;;8.12;100.00;101247.34;5098242;28;20088;-59
2023/04/21 06:08:07;;;;;;;67.30;59.92;;;;;;;8.23;100.00;101239.72;5095362;28;20027;-59
2023/04/21 06:10:33;;;;;;;65.60;57.70;;;;;;;8.15;99.46;101234.81;5096190;28;20630;-59
2023/04/21 06:12:58;;;;;;;66.20;59.08;;;;;;;8.25;100.00;101237.03;5092269;28;20032;-59
2023/04/21 06:15:24;;;;;;;64.53;57.55;;;;;;;8.24;99.78;101233.53;5106153;28;20016;-59
2023/04/21 06:17:56;;;;;;;66.38;59.13;;;;;;;8.26;100.00;101233.44;5125395;27;20034;-59
2023/04/21 06:20:21;;;;;;;63.70;56.67;;;;;;;8.27;99.54;101233.38;5110668;28;20035;-59
2023/04/21 06:22:47;;;;;;;68.07;60.25;;;;;;;8.37;100.00;101231.13;5113728;28;20027;-59
2023/04/21 06:25:12;;;;;;;66.15;58.95;;;;;;;8.49;99.96;101235.88;5111645;28;20582;-59
2023/04/21 06:27:37;;;;;;;62.58;46.65;;;;;;;8.57;99.07;101223.13;5113060;28;20028;-59
2023/04/21 06:30:06;;;;;;;65.57;58.30;;;;;;;8.58;98.80;101238.06;5113111;28;20051;-59
2023/04/21 06:32:31;;;;;;;67.35;57.15;;;;;;;8.48;99.17;101230.66;5111450;28;20694;-59
2023/04/21 06:34:56;;;;;;;65.35;57.40;;;;;;;8.62;99.17;101228.22;5110846;28;20168;-59
2023/04/21 06:37:22;;;;;;;71.72;60.15;;;;;;;8.64;99.62;101229.81;5113622;28;20019;-59
2023/04/21 06:39:47;;;;;;;67.28;59.35;;;;;;;8.73;98.94;101238.28;5103519;28;20475;-59
2023/04/21 06:42:15;;;;;;;65.30;56.95;;;;;;;8.75;98.86;101245.22;5093615;28;20028;-59
2023/04/21 06:44:42;;;;;;;60.65;54.28;;;;;;;8.79;97.60;101245.91;5092485;28;20028;-59
2023/04/21 06:47:08;;;;;;;61.22;54.72;;;;;;;8.72;96.86;101228.59;5093401;28;20028;-59
2023/04/21 06:49:36;;;;;;;63.30;56.33;;;;;;;8.77;97.83;101229.25;5092201;28;20031;-59
2023/04/21 06:52:02;;;;;;;60.17;53.88;;;;;;;9.00;96.68;101238.69;5104496;28;20097;-59
2023/04/21 06:54:28;;;;;;;61.50;54.83;;;;;;;8.99;95.95;101231.66;5111545;28;20031;-60
2023/04/21 06:56:53;;;;;;;62.97;56.28;;;;;;;9.11;95.94;101246.97;5113499;28;20033;-60
2023/04/21 06:59:19;;;;;;;58.67;52.42;;;;;;;9.13;94.88;101239.81;5113713;28;20046;-59
2023/04/21 07:01:50;;;;;;;61.10;54.60;;;;;;;9.09;96.03;101232.94;5113337;28;20489;-60
2023/04/21 07:04:16;;;;;;;63.55;56.65;;;;;;;8.99;96.89;101229.03;5112559;28;20031;-60
2023/04/21 07:06:42;;;;;;;61.15;54.55;;;;;;;9.09;95.92;101246.22;5113132;28;20020;-60
2023/04/21 07:09:08;;;;;;;59.85;53.28;;;;;;;9.20;95.26;101240.34;5113556;28;20042;-59
2023/04/21 07:11:33;;;;;;;62.10;55.63;;;;;;;9.06;95.95;101223.34;5113754;28;20045;-60
2023/04/21 07:14:01;;;;;;;62.55;56.13;;;;;;;9.38;95.18;101227.91;5111832;28;20023;-60
2023/04/21 07:16:27;;;;;;;59.05;52.90;;;;;;;9.44;93.58;101220.50;5112910;27;20023;-60
2023/04/21 07:18:52;;;;;;;57.40;51.30;;;;;;;9.51;92.59;101236.97;5113136;28;20027;-60
2023/04/21 07:21:17;;;;;;;58.58;52.42;;;;;;;9.54;93.45;101242.97;5112379;28;20026;-59
2023/04/21 07:23:43;;;;;;;59.35;53.08;;;;;;;9.60;93.91;101243.59;5111763;28;20058;-60
2023/04/21 07:26:08;;;;;;;58.97;52.80;;;;;;;9.64;93.05;101237.16;5111723;28;20015;-60
2023/04/21 07:28:34;;;;;;;56.60;50.83;;;;;;;9.75;91.81;101234.81;5113144;28;20028;-59
2023/04/21 07:30:59;;;;;;;54.88;49.22;;;;;;;9.81;91.13;101236.28;5112624;28;20390;-59
2023/04/21 07:33:25;;;;;;;56.80;51.17;;;;;;;9.89;91.26;101237.59;5111841;28;20023;-59
2023/04/21 07:35:50;;;;;;;55.50;49.95;;;;;;;9.87;90.85;101235.94;5112141;28;20422;-60
2023/04/21 07:38:15;;;;;;;52.72;47.55;;;;;;;9.87;91.21;101226.19;5111614;28;20070;-59
2023/04/21 07:40:41;;;;;;;53.45;47.95;;;;;;;9.93;90.64;101228.50;5111707;28;20577;-60
2023/04/21 07:43:06;;;;;;;50.55;45.63;;;;;;;10.15;89.32;101228.19;5094746;28;20080;-59
2023/04/21 07:45:32;;;;;;;46.88;42.28;;;;;;;10.22;85.67;101236.69;5108554;28;20588;-60
2023/04/21 07:47:58;;;;;;;45.80;41.30;;;;;;;10.30;85.20;101231.84;5092306;28;20028;-59
2023/04/21 07:50:23;;;;;;;46.33;41.88;;;;;;;10.56;86.04;101229.50;5092329;28;20481;-59
2023/04/21 07:52:49;;;;;;;42.65;38.60;;;;;;;10.67;85.95;101225.28;5090558;28;20024;-60
2023/04/21 07:55:14;;;;;;;43.25;38.90;;;;;;;10.81;83.01;101229.81;5091221;28;20024;-59
2023/04/21 07:57:40;;;;;;;44.20;39.92;;;;;;;11.01;83.45;101231.31;5092355;28;20569;-59
2023/04/21 08:00:09;;;;;;;41.25;37.17;;;;;;;11.03;82.33;101232.09;5090799;28;20031;-60
2023/04/21 08:02:34;;;;;;;37.53;34.03;;;;;;;11.21;80.64;101230.13;5092262;28;20027;-60
2023/04/21 08:04:59;;;;;;;35.95;32.55;;;;;;;11.14;76.82;101224.31;5090722;28;20028;-60
2023/04/21 08:07:25;;;;;;;35.92;32.47;;;;;;;11.18;78.19;101216.13;5091986;28;20080;-60
2023/04/21 08:09:50;;;;;;;37.65;34.13;;;;;;;11.31;77.00;101231.28;5091920;28;20407;-60
2023/04/21 08:12:16;;;;;;;37.13;33.63;;;;;;;11.36;76.25;101228.38;5090849;28;20035;-60
2023/04/21 08:14:41;;;;;;;34.80;31.60;;;;;;;11.50;77.47;101228.38;5092119;28;20039;-60
2023/04/21 08:17:07;;;;;;;35.00;31.67;;;;;;;11.54;75.54;101232.56;5092283;28;20394;-60
2023/04/21 08:19:32;;;;;;;34.33;31.23;;;;;;;11.66;76.40;101238.94;5091783;28;20463;-60
2023/04/21 08:21:59;;;;;;;32.95;29.95;;;;;;;11.75;73.64;101232.19;5091779;28;20116;-60
2023/04/21 08:24:25;;;;;;;34.67;31.52;;;;;;;11.85;75.19;101220.03;5090108;28;20032;-60
2023/04/21 08:26:50;;;;;;;32.92;29.83;;;;;;;12.01;73.18;101230.63;5091727;28;20024;-60
2023/04/21 08:29:18;;;;;;;31.38;28.40;;;;;;;12.02;70.52;101233.16;5090669;28;20063;-60
2023/04/21 08:31:44;;;;;;;33.30;30.10;;;;;;;12.07;71.88;101227.56;5090630;28;20024;-60
2023/04/21 08:34:09;;;;;;;32.38;29.42;;;;;;;12.20;72.02;101227.63;5091889;28;20479;-60
2023/04/21 08:36:37;;;;;;;30.83;28.02;;;;;;;12.44;70.38;101227.84;5107004;28;20028;-60
2023/04/21 08:39:03;;;;;;;31.08;28.17;;;;;;;12.49;69.98;101220.41;5091817;28;20040;-60
2023/04/21 08:41:28;;;;;;;29.83;27.02;;;;;;;12.66;70.73;101222.84;5090424;28;20020;-60
2023/04/21 08:43:54;;;;;;;29.38;26.55;;;;;;;12.64;68.81;101222.06;5091665;28;20028;-60
2023/04/21 08:46:20;;;;;;;28.15;25.55;;;;;;;12.88;68.55;101213.41;5090319;28;20107;-60
2023/04/21 08:48:46;;;;;;;28.63;26.10;;;;;;;12.85;67.20;101219.81;5091652;28;20035;-60
2023/04/21 08:51:16;;;;;;;29.08;26.30;;;;;;;12.98;68.30;101219.00;5090051;28;20403;-60
2023/04/21 08:53:43;;;;;;;27.73;25.00;;;;;;;13.15;68.05;101219.56;5092000;28;20082;-60
2023/04/21 08:56:08;;;;;;;27.42;24.92;;;;;;;13.13;68.11;101217.94;5090637;28;20598;-60
2023/04/21 08:58:34;;;;;;;27.33;24.80;;;;;;;13.12;66.31;101214.44;5090657;28;20016;-60
2023/04/21 09:01:02;;;;;;;26.42;24.13;;;;;;;13.30;67.06;101216.84;5091493;28;20165;-60
2023/04/21 09:03:30;;;;;;;23.80;21.70;;;;;;;13.28;64.55;101206.25;5090230;28;20475;-60
2023/04/21 09:06:00;;;;;;;24.38;22.13;;;;;;;13.49;64.96;101213.75;5089674;28;20020;-60
2023/04/21 09:08:28;;;;;;;24.58;22.30;;;;;;;13.61;62.73;101211.06;5091799;28;20436;-60
2023/04/21 09:10:54;;;;;;;24.08;21.98;;;;;;;13.59;62.68;101206.81;5091167;28;20036;-60
2023/04/21 09:13:22;;;;;;;22.48;20.45;;;;;;;13.57;61.59;101198.88;5091533;28;20395;-60
2023/04/21 09:15:51;;;;;;;22.10;20.20;;;;;;;13.76;62.79;101216.28;5091471;28;20111;-60
2023/04/21 09:18:22;;;;;;;23.20;21.10;;;;;;;13.95;62.50;101197.16;5090124;28;20024;-60
2023/04/21 09:21:11;;;;;;;22.88;20.67;;;;;;;14.25;63.40;101202.09;5090162;28;20024;-60
2023/04/21 09:23:49;;;;;;;22.92;21.02;;;;;;;14.19;62.58;101192.69;5093723;28;20028;-60
2023/04/21 09:26:16;;;;;;;21.63;19.70;;;;;;;14.24;63.88;101200.41;5094328;28;20080;-60
2023/04/21 09:28:43;;;;;;;23.10;21.00;;;;;;;14.46;64.25;101189.81;5103986;28;20103;-60
2023/04/21 09:31:14;;;;;;;21.98;19.88;;;;;;;14.59;62.25;101189.78;5090134;28;20020;-60
2023/04/21 09:33:44;;;;;;;22.15;20.05;;;;;;;14.96;61.53;101203.09;5089803;28;20032;-60
2023/04/21 09:36:20;;;;;;;20.60;18.73;;;;;;;15.12;61.10;101200.09;5090633;28;20619;-60
2023/04/21 09:39:04;;;;;;;24.02;21.60;;;;;;;15.12;61.29;101197.44;5074701;28;20024;-60
2023/04/21 09:41:31;;;;;;;22.25;20.17;;;;;;;15.36;60.23;101197.34;5095659;28;20546;-60
2023/04/21 09:44:00;;;;;;;19.33;17.52;;;;;;;15.69;57.10;101196.56;5115188;28;20474;-60
2023/04/21 09:46:28;;;;;;;19.00;17.30;;;;;;;15.50;54.90;101205.19;5104760;28;20020;-60
2023/04/21 09:48:54;;;;;;;20.20;18.50;;;;;;;15.61;55.45;101204.31;5097813;28;20030;-60
2023/04/21 09:51:23;;;;;;;19.80;17.85;;;;;;;15.90;55.10;101196.69;5094041;28;20029;-60
2023/04/21 09:53:52;;;;;;;17.83;15.85;;;;;;;16.04;54.63;101198.28;5093451;28;20020;-61
2023/04/21 09:56:21;;;;;;;17.45;15.85;;;;;;;15.89;52.98;101192.31;5100137;28;20030;-62
2023/04/21 09:58:51;;;;;;;19.52;16.73;;;;;;;15.91;53.34;101193.00;5091240;28;20544;-60
2023/04/21 10:01:18;;;;;;;17.02;15.40;;;;;;;16.10;54.68;101185.19;5085718;28;20528;-60
2023/04/21 10:03:45;;;;;;;15.90;14.50;;;;;;;16.34;56.42;101178.81;5114918;28;20031;-60
2023/04/21 10:06:11;;;;;;;17.70;15.98;;;;;;;16.33;53.10;101187.84;5114412;28;20023;-60
2023/04/21 10:08:37;;;;;;;18.15;16.33;;;;;;;16.12;53.01;101182.41;5111857;28;20111;-59
2023/04/21 10:11:03;;;;;;;19.05;17.38;;;;;;;16.24;53.91;101184.09;5110126;28;20549;-60
2023/04/21 10:13:29;;;;;;;17.98;16.40;;;;;;;16.30;54.27;101178.22;5112598;28;20466;-60
2023/04/21 10:16:08;;;;;;;18.35;16.75;;;;;;;16.43;53.45;101169.16;5103195;28;20093;-60
2023/04/21 10:18:38;;;;;;;18.23;16.30;;;;;;;16.61;52.69;101175.66;5092447;28;20032;-60
2023/04/21 10:21:12;;;;;;;18.77;16.98;;;;;;;16.69;53.06;101169.66;5093886;28;20016;-60
2023/04/21 10:23:40;;;;;;;20.00;18.20;;;;;;;16.33;52.80;101163.69;5093427;28;20436;-60
2023/04/21 10:26:14;;;;;;;20.13;18.23;;;;;;;16.70;53.75;101163.31;5093048;28;20085;-60
2023/04/21 10:28:43;;;;;;;19.30;17.45;;;;;;;16.74;52.87;101162.94;5093595;28;20382;-60
2023/04/21 10:31:21;;;;;;;20.02;18.17;;;;;;;16.90;52.81;101159.81;5093930;28;20024;-60
2023/04/21 10:34:05;;;;;;;19.63;17.83;;;;;;;16.80;52.28;101150.84;5094851;28;20534;-60
2023/04/21 10:36:34;;;;;;;20.45;18.55;;;;;;;16.90;50.55;101149.06;5089008;28;20398;-60
2023/04/21 10:39:02;;;;;;;19.83;17.98;;;;;;;17.00;51.12;101143.75;5092845;28;20027;-60
2023/04/21 10:41:33;;;;;;;20.30;18.35;;;;;;;16.95;51.50;101138.78;5092486;28;20085;-60
2023/04/21 10:44:00;;;;;;;19.25;17.55;;;;;;;16.89;51.40;101131.25;5099897;28;20106;-60
2023/04/21 10:46:37;;;;;;;20.30;18.33;;;;;;;16.99;52.77;101134.00;5100162;27;20027;-60
2023/04/21 10:49:09;;;;;;;20.27;18.33;;;;;;;17.03;52.82;101127.41;5076468;28;20020;-60
2023/04/21 10:54:44;;;;;;;19.77;17.88;;;;;;;17.60;53.41;101117.06;5099278;28;20028;-60
2023/04/21 10:57:12;;;;;;;19.08;17.17;;;;;;;17.53;50.95;101130.22;5081541;28;20040;-60
2023/04/21 10:59:41;;;;;;;18.60;16.90;;;;;;;17.68;49.15;101123.47;5099192;28;20383;-60
2023/04/21 11:02:09;;;;;;;17.13;15.53;;;;;;;17.63;50.59;101123.03;5111159;28;20025;-60
2023/04/21 11:04:39;;;;;;;17.80;16.20;;;;;;;17.40;50.48;101121.50;5111774;28;20051;-60
2023/04/21 11:07:05;;;;;;;19.02;17.33;;;;;;;17.22;50.41;101116.75;5090498;28;20024;-60
2023/04/21 11:09:31;;;;;;;17.13;15.55;;;;;;;16.93;50.94;101121.94;5092620;28;20040;-60
2023/04/21 11:12:02;;;;;;;17.67;15.88;;;;;;;16.90;51.14;101127.56;5092791;28;20509;-60
2023/04/21 11:14:30;;;;;;;17.80;16.20;;;;;;;16.64;50.75;101110.09;5100612;28;20026;-60
2023/04/21 11:16:56;;;;;;;17.58;16.02;;;;;;;16.58;50.91;101090.00;5094699;28;20122;-60